sensor_id;sensor_type;location;lat;lon;timestamp;P1;durP1;ratioP1;P2;durP2;ratioP2
11747;SDS011;5931;48.832;9.072;2023-04-27T00:01:09;5.37;;;4.60;;
11747;SDS011;5931;48.832;9.072;2023-04-27T00:03:36;9.83;;;5.30;;
11747;SDS011;5931;48.832;9.072;2023-04-27T00:06:02;9.10;;;5.50;;
11747;SDS011;5931;48.832;9.072;2023-04-27T00:08:27;5.60;;;4.30;;
11747;SDS011;5931;48.832;9.072;2023-04-27T00:10:53;7.93;;;4.70;;
11747;SDS011;5931;48.832;9.072;2023-04-27T00:13:18;5.17;;;4.20;;
11747;SDS011;5931;48.832;9.072;2023-04-27T00:15:44;5.20;;;4.17;;
11747;SDS011;5931;48.832;9.072;2023-04-27T00:18:10;6.70;;;4.30;;
11747;SDS011;5931;48.832;9.072;2023-04-27T00:20:35;7.07;;;4.77;;
11747;SDS011;5931;48.832;9.072;2023-04-27T00:23:01;6.07;;;4.20;;
11747;SDS011;5931;48.832;9.072;2023-04-27T00:25:26;10.30;;;5.50;;
11747;SDS011;5931;48.832;9.072;2023-04-27T00:27:52;8.63;;;3.80;;
11747;SDS011;5931;48.832;9.072;2023-04-27T00:30:18;6.87;;;5.00;;
11747;SDS011;5931;48.832;9.072;2023-04-27T00:32:43;5.00;;;4.17;;
11747;SDS011;5931;48.832;9.072;2023-04-27T00:35:09;10.60;;;4.60;;
11747;SDS011;5931;48.832;9.072;2023-04-27T00:37:35;11.17;;;4.47;;
11747;SDS011;5931;48.832;9.072;2023-04-27T00:40:03;8.40;;;4.30;;
11747;SDS011;5931;48.832;9.072;2023-04-27T00:42:32;6.03;;;3.80;;
11747;SDS011;5931;48.832;9.072;2023-04-27T00:44:58;5.30;;;3.73;;
11747;SDS011;5931;48.832;9.072;2023-04-27T00:47:24;4.90;;;3.97;;
11747;SDS011;5931;48.832;9.072;2023-04-27T00:49:50;6.17;;;3.97;;
11747;SDS011;5931;48.832;9.072;2023-04-27T00:52:16;4.70;;;3.90;;
11747;SDS011;5931;48.832;9.072;2023-04-27T00:54:42;7.83;;;3.60;;
11747;SDS011;5931;48.832;9.072;2023-04-27T00:57:08;4.57;;;3.67;;
11747;SDS011;5931;48.832;9.072;2023-04-27T00:59:34;4.87;;;3.73;;
11747;SDS011;5931;48.832;9.072;2023-04-27T01:02:00;7.20;;;3.00;;
11747;SDS011;5931;48.832;9.072;2023-04-27T01:04:26;5.70;;;4.37;;
11747;SDS011;5931;48.832;9.072;2023-04-27T01:06:52;5.10;;;3.50;;
11747;SDS011;5931;48.832;9.072;2023-04-27T01:09:18;7.87;;;4.13;;
11747;SDS011;5931;48.832;9.072;2023-04-27T01:11:45;6.13;;;3.20;;
11747;SDS011;5931;48.832;9.072;2023-04-27T01:14:11;4.70;;;3.20;;
11747;SDS011;5931;48.832;9.072;2023-04-27T01:16:37;7.03;;;3.70;;
11747;SDS011;5931;48.832;9.072;2023-04-27T01:19:03;6.43;;;4.20;;
11747;SDS011;5931;48.832;9.072;2023-04-27T01:21:29;6.37;;;4.53;;
11747;SDS011;5931;48.832;9.072;2023-04-27T01:23:57;5.90;;;3.60;;
11747;SDS011;5931;48.832;9.072;2023-04-27T01:26:22;4.37;;;3.37;;
11747;SDS011;5931;48.832;9.072;2023-04-27T01:28:48;6.60;;;3.50;;
11747;SDS011;5931;48.832;9.072;2023-04-27T01:31:13;5.60;;;3.50;;
11747;SDS011;5931;48.832;9.072;2023-04-27T01:33:39;7.63;;;4.43;;
11747;SDS011;5931;48.832;9.072;2023-04-27T01:36:06;7.67;;;3.93;;
11747;SDS011;5931;48.832;9.072;2023-04-27T01:38:32;7.77;;;4.57;;
11747;SDS011;5931;48.832;9.072;2023-04-27T01:40:59;4.30;;;3.50;;
11747;SDS011;5931;48.832;9.072;2023-04-27T01:43:26;6.43;;;4.17;;
11747;SDS011;5931;48.832;9.072;2023-04-27T01:45:52;5.93;;;3.97;;
11747;SDS011;5931;48.832;9.072;2023-04-27T01:48:20;5.67;;;3.87;;
11747;SDS011;5931;48.832;9.072;2023-04-27T01:50:46;5.60;;;3.80;;
11747;SDS011;5931;48.832;9.072;2023-04-27T01:53:12;10.83;;;4.10;;
11747;SDS011;5931;48.832;9.072;2023-04-27T01:55:37;13.13;;;4.20;;
11747;SDS011;5931;48.832;9.072;2023-04-27T01:58:03;5.07;;;3.73;;
11747;SDS011;5931;48.832;9.072;2023-04-27T02:00:30;7.43;;;3.90;;
11747;SDS011;5931;48.832;9.072;2023-04-27T02:02:57;5.27;;;3.90;;
11747;SDS011;5931;48.832;9.072;2023-04-27T02:05:24;8.40;;;4.20;;
11747;SDS011;5931;48.832;9.072;2023-04-27T02:07:51;6.97;;;3.43;;
11747;SDS011;5931;48.832;9.072;2023-04-27T02:10:17;6.30;;;4.13;;
11747;SDS011;5931;48.832;9.072;2023-04-27T02:12:43;7.87;;;4.07;;
11747;SDS011;5931;48.832;9.072;2023-04-27T02:15:09;5.10;;;3.73;;
11747;SDS011;5931;48.832;9.072;2023-04-27T02:17:34;6.17;;;4.30;;
11747;SDS011;5931;48.832;9.072;2023-04-27T02:20:00;5.60;;;4.10;;
11747;SDS011;5931;48.832;9.072;2023-04-27T02:22:26;7.83;;;4.50;;
11747;SDS011;5931;48.832;9.072;2023-04-27T02:24:52;8.60;;;4.70;;
11747;SDS011;5931;48.832;9.072;2023-04-27T02:27:19;6.40;;;4.90;;
11747;SDS011;5931;48.832;9.072;2023-04-27T02:29:44;7.27;;;4.30;;
11747;SDS011;5931;48.832;9.072;2023-04-27T02:32:10;5.67;;;4.50;;
11747;SDS011;5931;48.832;9.072;2023-04-27T02:34:37;5.47;;;4.40;;
11747;SDS011;5931;48.832;9.072;2023-04-27T02:37:02;6.20;;;4.43;;
11747;SDS011;5931;48.832;9.072;2023-04-27T02:39:28;5.10;;;4.20;;
11747;SDS011;5931;48.832;9.072;2023-04-27T02:41:53;8.93;;;4.13;;
11747;SDS011;5931;48.832;9.072;2023-04-27T02:44:19;9.17;;;3.77;;
11747;SDS011;5931;48.832;9.072;2023-04-27T02:46:45;7.47;;;4.40;;
11747;SDS011;5931;48.832;9.072;2023-04-27T02:49:10;5.97;;;3.90;;
11747;SDS011;5931;48.832;9.072;2023-04-27T02:51:36;6.17;;;4.53;;
11747;SDS011;5931;48.832;9.072;2023-04-27T02:54:02;6.33;;;3.80;;
11747;SDS011;5931;48.832;9.072;2023-04-27T02:56:27;7.00;;;4.07;;
11747;SDS011;5931;48.832;9.072;2023-04-27T02:58:53;7.00;;;3.50;;
11747;SDS011;5931;48.832;9.072;2023-04-27T03:01:19;5.20;;;3.43;;
11747;SDS011;5931;48.832;9.072;2023-04-27T03:03:45;4.50;;;3.47;;
11747;SDS011;5931;48.832;9.072;2023-04-27T03:06:14;5.93;;;3.70;;
11747;SDS011;5931;48.832;9.072;2023-04-27T03:08:39;4.93;;;3.40;;
11747;SDS011;5931;48.832;9.072;2023-04-27T03:11:05;3.87;;;3.30;;
11747;SDS011;5931;48.832;9.072;2023-04-27T03:13:31;3.97;;;3.40;;
11747;SDS011;5931;48.832;9.072;2023-04-27T03:16:05;7.37;;;3.73;;
11747;SDS011;5931;48.832;9.072;2023-04-27T03:18:31;6.03;;;4.00;;
11747;SDS011;5931;48.832;9.072;2023-04-27T03:21:03;8.10;;;3.93;;
11747;SDS011;5931;48.832;9.072;2023-04-27T03:23:36;7.10;;;4.23;;
11747;SDS011;5931;48.832;9.072;2023-04-27T03:26:08;5.97;;;4.13;;
11747;SDS011;5931;48.832;9.072;2023-04-27T03:28:36;9.57;;;4.00;;
11747;SDS011;5931;48.832;9.072;2023-04-27T03:31:05;6.77;;;4.40;;
11747;SDS011;5931;48.832;9.072;2023-04-27T03:33:32;9.20;;;3.80;;
11747;SDS011;5931;48.832;9.072;2023-04-27T03:35:58;8.23;;;5.13;;
11747;SDS011;5931;48.832;9.072;2023-04-27T03:38:24;5.13;;;4.07;;
11747;SDS011;5931;48.832;9.072;2023-04-27T03:40:51;9.20;;;4.27;;
11747;SDS011;5931;48.832;9.072;2023-04-27T03:43:17;4.70;;;3.80;;
11747;SDS011;5931;48.832;9.072;2023-04-27T03:45:44;6.93;;;4.93;;
11747;SDS011;5931;48.832;9.072;2023-04-27T03:48:10;6.40;;;4.30;;
11747;SDS011;5931;48.832;9.072;2023-04-27T03:50:36;7.53;;;3.97;;
11747;SDS011;5931;48.832;9.072;2023-04-27T03:53:02;6.03;;;4.33;;
11747;SDS011;5931;48.832;9.072;2023-04-27T03:55:28;4.60;;;3.70;;
11747;SDS011;5931;48.832;9.072;2023-04-27T03:57:53;6.03;;;4.10;;
11747;SDS011;5931;48.832;9.072;2023-04-27T04:00:19;4.60;;;3.40;;
11747;SDS011;5931;48.832;9.072;2023-04-27T04:02:45;9.33;;;3.90;;
11747;SDS011;5931;48.832;9.072;2023-04-27T04:05:11;6.50;;;4.17;;
11747;SDS011;5931;48.832;9.072;2023-04-27T04:07:38;6.93;;;4.00;;
11747;SDS011;5931;48.832;9.072;2023-04-27T04:10:08;5.73;;;4.23;;
11747;SDS011;5931;48.832;9.072;2023-04-27T04:12:35;6.80;;;4.97;;
11747;SDS011;5931;48.832;9.072;2023-04-27T04:15:02;4.73;;;3.43;;
11747;SDS011;5931;48.832;9.072;2023-04-27T04:17:28;6.40;;;4.03;;
11747;SDS011;5931;48.832;9.072;2023-04-27T04:19:54;6.07;;;4.50;;
11747;SDS011;5931;48.832;9.072;2023-04-27T04:22:20;6.57;;;4.03;;
11747;SDS011;5931;48.832;9.072;2023-04-27T04:24:45;4.37;;;3.63;;
11747;SDS011;5931;48.832;9.072;2023-04-27T04:27:11;6.30;;;4.07;;
11747;SDS011;5931;48.832;9.072;2023-04-27T04:29:37;5.90;;;4.17;;
11747;SDS011;5931;48.832;9.072;2023-04-27T04:32:03;6.73;;;3.80;;
11747;SDS011;5931;48.832;9.072;2023-04-27T04:34:29;5.00;;;3.50;;
11747;SDS011;5931;48.832;9.072;2023-04-27T04:36:56;6.40;;;4.20;;
11747;SDS011;5931;48.832;9.072;2023-04-27T04:39:22;6.90;;;3.73;;
11747;SDS011;5931;48.832;9.072;2023-04-27T04:41:48;6.07;;;4.10;;
11747;SDS011;5931;48.832;9.072;2023-04-27T04:44:14;6.77;;;4.20;;
11747;SDS011;5931;48.832;9.072;2023-04-27T04:46:40;7.97;;;3.50;;
11747;SDS011;5931;48.832;9.072;2023-04-27T04:49:06;5.73;;;3.93;;
11747;SDS011;5931;48.832;9.072;2023-04-27T04:51:33;4.70;;;3.63;;
11747;SDS011;5931;48.832;9.072;2023-04-27T04:53:59;4.83;;;3.90;;
11747;SDS011;5931;48.832;9.072;2023-04-27T04:56:25;5.53;;;4.10;;
11747;SDS011;5931;48.832;9.072;2023-04-27T04:58:54;5.20;;;3.80;;
11747;SDS011;5931;48.832;9.072;2023-04-27T05:01:19;7.73;;;3.60;;
11747;SDS011;5931;48.832;9.072;2023-04-27T05:03:46;5.30;;;3.90;;
11747;SDS011;5931;48.832;9.072;2023-04-27T05:06:12;4.87;;;3.60;;
11747;SDS011;5931;48.832;9.072;2023-04-27T05:08:38;7.93;;;3.87;;
11747;SDS011;5931;48.832;9.072;2023-04-27T05:11:04;4.40;;;3.50;;
11747;SDS011;5931;48.832;9.072;2023-04-27T05:13:30;6.17;;;3.90;;
11747;SDS011;5931;48.832;9.072;2023-04-27T05:15:56;9.70;;;3.50;;
11747;SDS011;5931;48.832;9.072;2023-04-27T05:18:21;6.47;;;4.30;;
11747;SDS011;5931;48.832;9.072;2023-04-27T05:20:47;5.10;;;3.60;;
11747;SDS011;5931;48.832;9.072;2023-04-27T05:23:12;5.10;;;4.20;;
11747;SDS011;5931;48.832;9.072;2023-04-27T05:25:38;6.67;;;3.87;;
11747;SDS011;5931;48.832;9.072;2023-04-27T05:28:10;6.60;;;3.53;;
11747;SDS011;5931;48.832;9.072;2023-04-27T05:30:35;8.00;;;5.00;;
11747;SDS011;5931;48.832;9.072;2023-04-27T05:33:02;6.97;;;4.00;;
11747;SDS011;5931;48.832;9.072;2023-04-27T05:35:28;5.20;;;3.77;;
11747;SDS011;5931;48.832;9.072;2023-04-27T05:37:55;7.03;;;3.80;;
11747;SDS011;5931;48.832;9.072;2023-04-27T05:40:21;6.73;;;4.50;;
11747;SDS011;5931;48.832;9.072;2023-04-27T05:42:47;9.13;;;4.30;;
11747;SDS011;5931;48.832;9.072;2023-04-27T05:45:13;5.27;;;4.03;;
11747;SDS011;5931;48.832;9.072;2023-04-27T05:47:39;5.77;;;4.20;;
11747;SDS011;5931;48.832;9.072;2023-04-27T05:50:04;13.00;;;3.83;;
11747;SDS011;5931;48.832;9.072;2023-04-27T05:52:30;7.50;;;3.97;;
11747;SDS011;5931;48.832;9.072;2023-04-27T05:54:56;5.67;;;3.83;;
11747;SDS011;5931;48.832;9.072;2023-04-27T05:57:23;5.80;;;4.20;;
11747;SDS011;5931;48.832;9.072;2023-04-27T05:59:49;7.13;;;3.80;;
11747;SDS011;5931;48.832;9.072;2023-04-27T06:02:15;7.97;;;4.53;;
11747;SDS011;5931;48.832;9.072;2023-04-27T06:04:41;8.57;;;3.80;;
11747;SDS011;5931;48.832;9.072;2023-04-27T06:07:10;6.73;;;3.83;;
11747;SDS011;5931;48.832;9.072;2023-04-27T06:09:37;7.13;;;4.23;;
11747;SDS011;5931;48.832;9.072;2023-04-27T06:12:03;4.57;;;3.73;;
11747;SDS011;5931;48.832;9.072;2023-04-27T06:14:30;6.63;;;4.30;;
11747;SDS011;5931;48.832;9.072;2023-04-27T06:16:56;5.60;;;4.13;;
11747;SDS011;5931;48.832;9.072;2023-04-27T06:19:22;10.33;;;5.07;;
11747;SDS011;5931;48.832;9.072;2023-04-27T06:21:49;7.63;;;4.53;;
11747;SDS011;5931;48.832;9.072;2023-04-27T06:24:14;6.87;;;4.40;;
11747;SDS011;5931;48.832;9.072;2023-04-27T06:26:40;11.10;;;4.00;;
11747;SDS011;5931;48.832;9.072;2023-04-27T06:29:06;7.77;;;4.33;;
11747;SDS011;5931;48.832;9.072;2023-04-27T06:31:35;7.83;;;4.23;;
11747;SDS011;5931;48.832;9.072;2023-04-27T06:34:00;9.33;;;4.40;;
11747;SDS011;5931;48.832;9.072;2023-04-27T06:36:26;6.13;;;4.50;;
11747;SDS011;5931;48.832;9.072;2023-04-27T06:38:55;5.00;;;3.50;;
11747;SDS011;5931;48.832;9.072;2023-04-27T06:41:22;4.70;;;3.67;;
11747;SDS011;5931;48.832;9.072;2023-04-27T06:43:51;10.87;;;4.93;;
11747;SDS011;5931;48.832;9.072;2023-04-27T06:46:18;6.20;;;5.27;;
11747;SDS011;5931;48.832;9.072;2023-04-27T06:48:44;7.93;;;4.50;;
11747;SDS011;5931;48.832;9.072;2023-04-27T06:51:10;5.60;;;4.60;;
11747;SDS011;5931;48.832;9.072;2023-04-27T06:53:37;5.80;;;4.43;;
11747;SDS011;5931;48.832;9.072;2023-04-27T06:56:03;6.00;;;4.40;;
11747;SDS011;5931;48.832;9.072;2023-04-27T06:58:30;7.83;;;4.90;;
11747;SDS011;5931;48.832;9.072;2023-04-27T07:00:55;5.40;;;4.20;;
11747;SDS011;5931;48.832;9.072;2023-04-27T07:03:21;6.53;;;4.57;;
11747;SDS011;5931;48.832;9.072;2023-04-27T07:05:47;7.20;;;3.80;;
11747;SDS011;5931;48.832;9.072;2023-04-27T07:08:12;5.57;;;4.10;;
11747;SDS011;5931;48.832;9.072;2023-04-27T07:10:38;6.83;;;3.90;;
11747;SDS011;5931;48.832;9.072;2023-04-27T07:13:04;6.10;;;4.67;;
11747;SDS011;5931;48.832;9.072;2023-04-27T07:15:30;6.07;;;4.20;;
11747;SDS011;5931;48.832;9.072;2023-04-27T07:17:56;5.40;;;4.47;;
11747;SDS011;5931;48.832;9.072;2023-04-27T07:20:21;13.97;;;4.90;;
11747;SDS011;5931;48.832;9.072;2023-04-27T07:22:47;4.97;;;4.07;;
11747;SDS011;5931;48.832;9.072;2023-04-27T07:25:13;7.43;;;4.87;;
11747;SDS011;5931;48.832;9.072;2023-04-27T07:27:39;5.40;;;4.73;;
11747;SDS011;5931;48.832;9.072;2023-04-27T07:30:05;4.33;;;3.93;;
11747;SDS011;5931;48.832;9.072;2023-04-27T07:32:33;7.73;;;4.90;;
11747;SDS011;5931;48.832;9.072;2023-04-27T07:35:00;8.80;;;5.70;;
11747;SDS011;5931;48.832;9.072;2023-04-27T07:37:27;13.07;;;4.97;;
11747;SDS011;5931;48.832;9.072;2023-04-27T07:39:52;8.07;;;4.37;;
11747;SDS011;5931;48.832;9.072;2023-04-27T07:42:19;6.20;;;4.60;;
11747;SDS011;5931;48.832;9.072;2023-04-27T07:44:46;5.50;;;4.17;;
11747;SDS011;5931;48.832;9.072;2023-04-27T07:47:14;5.57;;;4.63;;
11747;SDS011;5931;48.832;9.072;2023-04-27T07:49:41;6.70;;;4.53;;
11747;SDS011;5931;48.832;9.072;2023-04-27T07:52:09;5.27;;;4.00;;
11747;SDS011;5931;48.832;9.072;2023-04-27T07:54:35;7.23;;;4.13;;
11747;SDS011;5931;48.832;9.072;2023-04-27T07:57:01;5.43;;;4.10;;
11747;SDS011;5931;48.832;9.072;2023-04-27T07:59:34;7.30;;;4.23;;
11747;SDS011;5931;48.832;9.072;2023-04-27T08:02:00;4.90;;;4.33;;
11747;SDS011;5931;48.832;9.072;2023-04-27T08:04:26;6.97;;;3.37;;
11747;SDS011;5931;48.832;9.072;2023-04-27T08:06:51;5.07;;;4.60;;
11747;SDS011;5931;48.832;9.072;2023-04-27T08:09:17;4.17;;;3.00;;
11747;SDS011;5931;48.832;9.072;2023-04-27T08:11:43;7.80;;;3.40;;
11747;SDS011;5931;48.832;9.072;2023-04-27T08:14:08;4.87;;;3.57;;
11747;SDS011;5931;48.832;9.072;2023-04-27T08:16:39;5.27;;;3.23;;
11747;SDS011;5931;48.832;9.072;2023-04-27T08:19:08;3.93;;;2.87;;
11747;SDS011;5931;48.832;9.072;2023-04-27T08:21:37;3.57;;;3.10;;
11747;SDS011;5931;48.832;9.072;2023-04-27T08:24:04;5.73;;;3.33;;
11747;SDS011;5931;48.832;9.072;2023-04-27T08:26:31;7.57;;;3.30;;
11747;SDS011;5931;48.832;9.072;2023-04-27T08:28:57;4.63;;;3.00;;
11747;SDS011;5931;48.832;9.072;2023-04-27T08:31:24;3.13;;;2.80;;
11747;SDS011;5931;48.832;9.072;2023-04-27T08:33:50;4.53;;;3.07;;
11747;SDS011;5931;48.832;9.072;2023-04-27T08:36:17;4.10;;;2.47;;
11747;SDS011;5931;48.832;9.072;2023-04-27T08:38:50;3.83;;;2.87;;
11747;SDS011;5931;48.832;9.072;2023-04-27T08:41:22;3.03;;;2.40;;
11747;SDS011;5931;48.832;9.072;2023-04-27T08:43:49;3.67;;;2.80;;
11747;SDS011;5931;48.832;9.072;2023-04-27T08:46:18;5.60;;;3.27;;
11747;SDS011;5931;48.832;9.072;2023-04-27T08:48:45;5.10;;;3.20;;
11747;SDS011;5931;48.832;9.072;2023-04-27T08:51:14;3.17;;;2.50;;
11747;SDS011;5931;48.832;9.072;2023-04-27T08:56:14;2.80;;;2.60;;
11747;SDS011;5931;48.832;9.072;2023-04-27T08:58:40;4.30;;;2.60;;
11747;SDS011;5931;48.832;9.072;2023-04-27T09:01:06;5.40;;;3.13;;
11747;SDS011;5931;48.832;9.072;2023-04-27T09:03:33;5.33;;;3.13;;
11747;SDS011;5931;48.832;9.072;2023-04-27T09:06:00;3.63;;;2.37;;
11747;SDS011;5931;48.832;9.072;2023-04-27T09:08:26;4.17;;;2.40;;
11747;SDS011;5931;48.832;9.072;2023-04-27T09:10:52;3.87;;;2.47;;
11747;SDS011;5931;48.832;9.072;2023-04-27T09:13:19;3.20;;;2.60;;
11747;SDS011;5931;48.832;9.072;2023-04-27T09:15:46;3.47;;;2.77;;
11747;SDS011;5931;48.832;9.072;2023-04-27T09:18:16;2.80;;;2.40;;
11747;SDS011;5931;48.832;9.072;2023-04-27T09:20:45;3.87;;;2.93;;
11747;SDS011;5931;48.832;9.072;2023-04-27T09:25:53;7.50;;;3.43;;
11747;SDS011;5931;48.832;9.072;2023-04-27T09:28:20;4.30;;;2.63;;
11747;SDS011;5931;48.832;9.072;2023-04-27T09:30:53;5.87;;;2.73;;
11747;SDS011;5931;48.832;9.072;2023-04-27T09:35:50;3.50;;;2.73;;
11747;SDS011;5931;48.832;9.072;2023-04-27T09:38:20;3.10;;;2.57;;
11747;SDS011;5931;48.832;9.072;2023-04-27T09:40:47;4.07;;;2.80;;
11747;SDS011;5931;48.832;9.072;2023-04-27T09:43:14;3.40;;;2.20;;
11747;SDS011;5931;48.832;9.072;2023-04-27T09:45:40;4.10;;;2.57;;
11747;SDS011;5931;48.832;9.072;2023-04-27T09:48:06;4.77;;;2.60;;
11747;SDS011;5931;48.832;9.072;2023-04-27T09:54:21;5.40;;;3.00;;
11747;SDS011;5931;48.832;9.072;2023-04-27T09:56:51;5.30;;;2.87;;
11747;SDS011;5931;48.832;9.072;2023-04-27T09:59:41;3.00;;;2.57;;
11747;SDS011;5931;48.832;9.072;2023-04-27T10:02:17;3.13;;;2.83;;
11747;SDS011;5931;48.832;9.072;2023-04-27T10:07:46;4.27;;;2.60;;
11747;SDS011;5931;48.832;9.072;2023-04-27T10:10:16;4.23;;;2.90;;
11747;SDS011;5931;48.832;9.072;2023-04-27T10:12:42;3.83;;;2.70;;
11747;SDS011;5931;48.832;9.072;2023-04-27T10:15:12;3.60;;;2.67;;
11747;SDS011;5931;48.832;9.072;2023-04-27T10:17:45;3.70;;;2.80;;
11747;SDS011;5931;48.832;9.072;2023-04-27T10:20:27;6.97;;;2.60;;
11747;SDS011;5931;48.832;9.072;2023-04-27T10:22:56;7.27;;;2.80;;
11747;SDS011;5931;48.832;9.072;2023-04-27T10:25:35;4.43;;;3.13;;
11747;SDS011;5931;48.832;9.072;2023-04-27T10:28:04;3.53;;;2.67;;
11747;SDS011;5931;48.832;9.072;2023-04-27T10:30:38;4.83;;;2.97;;
11747;SDS011;5931;48.832;9.072;2023-04-27T10:33:09;6.70;;;2.90;;
11747;SDS011;5931;48.832;9.072;2023-04-27T10:35:53;4.27;;;2.70;;
11747;SDS011;5931;48.832;9.072;2023-04-27T10:38:21;4.20;;;2.90;;
11747;SDS011;5931;48.832;9.072;2023-04-27T10:40:54;2.90;;;2.70;;
11747;SDS011;5931;48.832;9.072;2023-04-27T10:43:23;5.77;;;2.93;;
11747;SDS011;5931;48.832;9.072;2023-04-27T10:45:51;4.90;;;2.97;;
11747;SDS011;5931;48.832;9.072;2023-04-27T10:48:17;4.17;;;3.17;;
11747;SDS011;5931;48.832;9.072;2023-04-27T10:50:43;4.43;;;3.60;;
11747;SDS011;5931;48.832;9.072;2023-04-27T10:53:10;5.80;;;3.70;;
11747;SDS011;5931;48.832;9.072;2023-04-27T10:55:37;5.60;;;3.20;;
11747;SDS011;5931;48.832;9.072;2023-04-27T10:58:03;4.33;;;3.23;;
11747;SDS011;5931;48.832;9.072;2023-04-27T11:02:57;4.50;;;3.17;;
11747;SDS011;5931;48.832;9.072;2023-04-27T11:05:38;4.50;;;2.80;;
11747;SDS011;5931;48.832;9.072;2023-04-27T11:08:09;3.83;;;3.03;;
11747;SDS011;5931;48.832;9.072;2023-04-27T11:10:43;5.10;;;4.00;;
11747;SDS011;5931;48.832;9.072;2023-04-27T11:13:14;4.77;;;3.50;;
11747;SDS011;5931;48.832;9.072;2023-04-27T11:15:59;3.70;;;2.77;;
11747;SDS011;5931;48.832;9.072;2023-04-27T11:18:26;5.03;;;3.30;;
11747;SDS011;5931;48.832;9.072;2023-04-27T11:21:16;5.33;;;2.70;;
11747;SDS011;5931;48.832;9.072;2023-04-27T11:23:41;5.10;;;3.97;;
11747;SDS011;5931;48.832;9.072;2023-04-27T11:26:17;6.43;;;5.20;;
11747;SDS011;5931;48.832;9.072;2023-04-27T11:28:58;3.27;;;2.90;;
11747;SDS011;5931;48.832;9.072;2023-04-27T11:31:36;10.63;;;3.07;;
11747;SDS011;5931;48.832;9.072;2023-04-27T11:34:14;4.50;;;3.00;;
11747;SDS011;5931;48.832;9.072;2023-04-27T11:39:26;5.10;;;3.60;;
11747;SDS011;5931;48.832;9.072;2023-04-27T11:41:53;6.47;;;4.10;;
11747;SDS011;5931;48.832;9.072;2023-04-27T11:44:23;8.67;;;3.57;;
11747;SDS011;5931;48.832;9.072;2023-04-27T11:46:51;5.70;;;3.40;;
11747;SDS011;5931;48.832;9.072;2023-04-27T11:49:17;4.57;;;2.63;;
11747;SDS011;5931;48.832;9.072;2023-04-27T11:51:44;3.63;;;3.23;;
11747;SDS011;5931;48.832;9.072;2023-04-27T11:54:10;4.40;;;3.97;;
11747;SDS011;5931;48.832;9.072;2023-04-27T11:56:40;8.10;;;3.73;;
11747;SDS011;5931;48.832;9.072;2023-04-27T11:59:17;6.90;;;3.73;;
11747;SDS011;5931;48.832;9.072;2023-04-27T12:01:45;4.80;;;3.73;;
11747;SDS011;5931;48.832;9.072;2023-04-27T12:04:10;5.63;;;3.30;;
11747;SDS011;5931;48.832;9.072;2023-04-27T12:06:36;3.87;;;2.67;;
11747;SDS011;5931;48.832;9.072;2023-04-27T12:09:02;6.00;;;3.57;;
11747;SDS011;5931;48.832;9.072;2023-04-27T12:11:29;4.17;;;3.77;;
11747;SDS011;5931;48.832;9.072;2023-04-27T12:13:55;6.10;;;3.70;;
11747;SDS011;5931;48.832;9.072;2023-04-27T12:16:21;5.47;;;3.50;;
11747;SDS011;5931;48.832;9.072;2023-04-27T12:18:50;4.47;;;3.57;;
11747;SDS011;5931;48.832;9.072;2023-04-27T12:21:15;4.27;;;3.47;;
11747;SDS011;5931;48.832;9.072;2023-04-27T12:23:41;6.17;;;4.10;;
11747;SDS011;5931;48.832;9.072;2023-04-27T12:26:07;3.23;;;2.90;;
11747;SDS011;5931;48.832;9.072;2023-04-27T12:28:33;4.23;;;3.47;;
11747;SDS011;5931;48.832;9.072;2023-04-27T12:31:01;5.07;;;3.53;;
11747;SDS011;5931;48.832;9.072;2023-04-27T12:33:28;6.80;;;3.40;;
11747;SDS011;5931;48.832;9.072;2023-04-27T12:35:54;5.23;;;3.37;;
11747;SDS011;5931;48.832;9.072;2023-04-27T12:38:20;4.00;;;3.27;;
11747;SDS011;5931;48.832;9.072;2023-04-27T12:40:46;11.13;;;3.43;;
11747;SDS011;5931;48.832;9.072;2023-04-27T12:43:12;7.27;;;3.73;;
11747;SDS011;5931;48.832;9.072;2023-04-27T12:45:38;5.67;;;3.53;;
11747;SDS011;5931;48.832;9.072;2023-04-27T12:48:04;3.37;;;2.90;;
11747;SDS011;5931;48.832;9.072;2023-04-27T12:50:35;5.63;;;3.67;;
11747;SDS011;5931;48.832;9.072;2023-04-27T12:53:01;6.67;;;4.17;;
11747;SDS011;5931;48.832;9.072;2023-04-27T12:55:27;4.67;;;3.20;;
11747;SDS011;5931;48.832;9.072;2023-04-27T12:57:53;3.80;;;2.90;;
11747;SDS011;5931;48.832;9.072;2023-04-27T13:00:22;3.80;;;3.10;;
11747;SDS011;5931;48.832;9.072;2023-04-27T13:02:49;9.30;;;3.90;;
11747;SDS011;5931;48.832;9.072;2023-04-27T13:05:15;3.50;;;3.10;;
11747;SDS011;5931;48.832;9.072;2023-04-27T13:07:41;5.37;;;3.83;;
11747;SDS011;5931;48.832;9.072;2023-04-27T13:10:07;5.13;;;3.67;;
11747;SDS011;5931;48.832;9.072;2023-04-27T13:12:33;4.40;;;3.37;;
11747;SDS011;5931;48.832;9.072;2023-04-27T13:14:59;5.20;;;3.50;;
11747;SDS011;5931;48.832;9.072;2023-04-27T13:17:24;3.70;;;3.10;;
11747;SDS011;5931;48.832;9.072;2023-04-27T13:19:50;4.03;;;3.10;;
11747;SDS011;5931;48.832;9.072;2023-04-27T13:22:16;4.67;;;3.40;;
11747;SDS011;5931;48.832;9.072;2023-04-27T13:24:42;3.87;;;3.00;;
11747;SDS011;5931;48.832;9.072;2023-04-27T13:27:08;4.43;;;2.80;;
11747;SDS011;5931;48.832;9.072;2023-04-27T13:29:33;6.83;;;4.53;;
11747;SDS011;5931;48.832;9.072;2023-04-27T13:31:59;4.30;;;3.40;;
11747;SDS011;5931;48.832;9.072;2023-04-27T13:34:25;7.20;;;4.10;;
11747;SDS011;5931;48.832;9.072;2023-04-27T13:36:50;4.07;;;3.17;;
11747;SDS011;5931;48.832;9.072;2023-04-27T13:39:16;4.57;;;3.37;;
11747;SDS011;5931;48.832;9.072;2023-04-27T13:41:42;5.00;;;3.00;;
11747;SDS011;5931;48.832;9.072;2023-04-27T13:44:07;5.60;;;3.60;;
11747;SDS011;5931;48.832;9.072;2023-04-27T13:46:33;4.40;;;2.87;;
11747;SDS011;5931;48.832;9.072;2023-04-27T13:48:58;5.00;;;3.10;;
11747;SDS011;5931;48.832;9.072;2023-04-27T13:51:24;2.63;;;2.37;;
11747;SDS011;5931;48.832;9.072;2023-04-27T13:53:52;4.17;;;3.10;;
11747;SDS011;5931;48.832;9.072;2023-04-27T13:56:17;3.80;;;3.30;;
11747;SDS011;5931;48.832;9.072;2023-04-27T13:58:43;4.00;;;3.17;;
11747;SDS011;5931;48.832;9.072;2023-04-27T14:01:08;5.47;;;3.87;;
11747;SDS011;5931;48.832;9.072;2023-04-27T14:03:34;4.43;;;2.67;;
11747;SDS011;5931;48.832;9.072;2023-04-27T14:06:00;3.47;;;3.10;;
11747;SDS011;5931;48.832;9.072;2023-04-27T14:08:26;4.97;;;3.13;;
11747;SDS011;5931;48.832;9.072;2023-04-27T14:10:52;3.43;;;3.10;;
11747;SDS011;5931;48.832;9.072;2023-04-27T14:13:17;5.60;;;3.40;;
11747;SDS011;5931;48.832;9.072;2023-04-27T14:15:43;6.13;;;3.10;;
11747;SDS011;5931;48.832;9.072;2023-04-27T14:18:09;3.63;;;2.90;;
11747;SDS011;5931;48.832;9.072;2023-04-27T14:20:35;6.93;;;3.80;;
11747;SDS011;5931;48.832;9.072;2023-04-27T14:23:02;5.57;;;3.50;;
11747;SDS011;5931;48.832;9.072;2023-04-27T14:25:29;3.20;;;2.67;;
11747;SDS011;5931;48.832;9.072;2023-04-27T14:28:02;3.50;;;2.23;;
11747;SDS011;5931;48.832;9.072;2023-04-27T14:30:30;3.63;;;2.60;;
11747;SDS011;5931;48.832;9.072;2023-04-27T14:32:56;5.30;;;3.80;;
11747;SDS011;5931;48.832;9.072;2023-04-27T14:35:22;5.10;;;3.27;;
11747;SDS011;5931;48.832;9.072;2023-04-27T14:37:51;6.50;;;2.80;;
11747;SDS011;5931;48.832;9.072;2023-04-27T14:40:17;4.10;;;2.77;;
11747;SDS011;5931;48.832;9.072;2023-04-27T14:42:43;2.83;;;2.23;;
11747;SDS011;5931;48.832;9.072;2023-04-27T14:45:09;2.80;;;2.53;;
11747;SDS011;5931;48.832;9.072;2023-04-27T14:47:36;3.37;;;3.07;;
11747;SDS011;5931;48.832;9.072;2023-04-27T14:50:02;5.77;;;2.70;;
11747;SDS011;5931;48.832;9.072;2023-04-27T14:52:28;4.00;;;2.80;;
11747;SDS011;5931;48.832;9.072;2023-04-27T14:54:53;3.73;;;2.40;;
11747;SDS011;5931;48.832;9.072;2023-04-27T14:57:19;2.67;;;2.10;;
11747;SDS011;5931;48.832;9.072;2023-04-27T14:59:46;2.67;;;2.47;;
11747;SDS011;5931;48.832;9.072;2023-04-27T15:02:12;3.50;;;2.60;;
11747;SDS011;5931;48.832;9.072;2023-04-27T15:04:37;2.80;;;1.90;;
11747;SDS011;5931;48.832;9.072;2023-04-27T15:07:04;3.80;;;2.93;;
11747;SDS011;5931;48.832;9.072;2023-04-27T15:09:30;4.20;;;2.80;;
11747;SDS011;5931;48.832;9.072;2023-04-27T15:11:56;3.67;;;2.67;;
11747;SDS011;5931;48.832;9.072;2023-04-27T15:14:21;2.63;;;2.43;;
11747;SDS011;5931;48.832;9.072;2023-04-27T15:16:48;3.60;;;2.37;;
11747;SDS011;5931;48.832;9.072;2023-04-27T15:19:13;2.63;;;2.20;;